createdAt,value
2022-11-15T00:00:59.994Z,101092.50
2022-11-15T00:03:45.469Z,101082.91
2022-11-15T00:06:30.391Z,101081.13
2022-11-15T00:09:15.317Z,101092.00
2022-11-15T00:12:00.091Z,101091.66
2022-11-15T00:14:45.074Z,101081.06
2022-11-15T00:17:30.599Z,101080.44
2022-11-15T00:20:15.801Z,101070.75
2022-11-15T00:23:00.997Z,101073.03
2022-11-15T00:25:45.999Z,101066.09
2022-11-15T00:28:30.882Z,101061.84
2022-11-15T00:31:15.827Z,101065.38
2022-11-15T00:34:01.105Z,101067.66
2022-11-15T00:36:46.047Z,101063.63
2022-11-15T00:39:31.289Z,101059.22
2022-11-15T00:42:16.191Z,101053.66
2022-11-15T00:45:01.169Z,101053.41
2022-11-15T00:47:47.194Z,101047.75
2022-11-15T00:50:32.342Z,101053.25
2022-11-15T00:53:17.600Z,101054.16
2022-11-15T00:56:02.490Z,101047.56
2022-11-15T00:58:47.560Z,101040.09
2022-11-15T01:01:32.594Z,101044.66
2022-11-15T01:04:17.528Z,101040.09
2022-11-15T01:07:02.575Z,101043.47
2022-11-15T01:09:47.801Z,101035.63
2022-11-15T01:12:36.363Z,101031.34
2022-11-15T01:15:21.364Z,101033.69
2022-11-15T01:18:06.410Z,101030.41
2022-11-15T01:20:51.432Z,101028.16
2022-11-15T01:23:36.427Z,101024.25
2022-11-15T01:26:22.303Z,101019.81
2022-11-15T01:29:07.476Z,101016.41
2022-11-15T01:31:54.212Z,101008.41
2022-11-15T01:34:39.517Z,101007.50
2022-11-15T01:37:24.403Z,100996.44
2022-11-15T01:40:10.009Z,100998.66
2022-11-15T01:42:55.117Z,100985.91
2022-11-15T01:45:40.017Z,100996.38
2022-11-15T01:48:32.408Z,100994.41
2022-11-15T01:51:20.166Z,100982.09
2022-11-15T01:54:09.782Z,100979.41
2022-11-15T01:57:02.474Z,100972.28
2022-11-15T01:59:47.911Z,100974.19
2022-11-15T02:02:35.125Z,100967.44
2022-11-15T02:05:20.221Z,100970.66
2022-11-15T02:08:05.820Z,100969.97
2022-11-15T02:10:50.939Z,100965.56
2022-11-15T02:13:36.990Z,100965.66
2022-11-15T02:16:49.954Z,100969.97
2022-11-15T02:19:34.795Z,100964.41
2022-11-15T02:23:00.637Z,100967.25
2022-11-15T02:26:03.550Z,100964.47
2022-11-15T02:29:04.907Z,100956.63
2022-11-15T02:32:08.770Z,100953.00
2022-11-15T02:35:15.410Z,100960.00
2022-11-15T02:38:08.942Z,100949.72
2022-11-15T02:41:07.753Z,100953.41
2022-11-15T02:44:04.486Z,100939.56
2022-11-15T02:47:13.673Z,100936.19
2022-11-15T02:50:03.271Z,100931.97
2022-11-15T02:52:51.970Z,100939.50
2022-11-15T02:55:46.194Z,100941.66
2022-11-15T02:59:06.576Z,100931.97
2022-11-15T03:02:19.138Z,100940.41
2022-11-15T03:05:24.530Z,100931.75
2022-11-15T03:08:12.085Z,100935.94
2022-11-15T03:11:12.798Z,100940.00
2022-11-15T03:14:19.976Z,100931.44
2022-11-15T03:17:27.392Z,100936.03
2022-11-15T03:20:16.814Z,100934.50
2022-11-15T03:23:07.163Z,100927.78
2022-11-15T03:25:54.423Z,100930.88
2022-11-15T03:28:49.851Z,100930.03
2022-11-15T03:31:51.111Z,100933.59
2022-11-15T03:34:48.425Z,100923.38
2022-11-15T03:37:47.096Z,100930.13
2022-11-15T03:40:39.091Z,100928.75
2022-11-15T03:43:44.152Z,100928.75
2022-11-15T03:46:37.896Z,100924.56
2022-11-15T03:49:31.892Z,100925.03
2022-11-15T03:52:19.923Z,100918.13
2022-11-15T03:55:08.470Z,100916.50
2022-11-15T03:57:57.516Z,100918.09
2022-11-15T04:00:42.512Z,100914.56
2022-11-15T04:03:27.449Z,100919.38
2022-11-15T04:06:12.585Z,100910.50
2022-11-15T04:08:57.569Z,100910.75
2022-11-15T04:11:42.667Z,100914.34
2022-11-15T04:14:27.637Z,100912.44
2022-11-15T04:17:12.613Z,100917.41
2022-11-15T04:20:16.279Z,100917.94
2022-11-15T04:23:22.912Z,100921.31
2022-11-15T04:26:12.119Z,100920.31
2022-11-15T04:29:15.685Z,100916.94
2022-11-15T04:32:04.765Z,100913.31
2022-11-15T04:34:50.062Z,100913.31
2022-11-15T04:37:34.929Z,100908.59
2022-11-15T04:40:19.921Z,100901.59
2022-11-15T04:43:05.582Z,100894.28
2022-11-15T04:45:50.575Z,100904.72
2022-11-15T04:48:35.461Z,100899.81
2022-11-15T04:51:20.696Z,100894.25
2022-11-15T04:54:07.090Z,100897.63
2022-11-15T04:56:52.009Z,100901.25
2022-11-15T04:59:36.982Z,100902.28
2022-11-15T05:02:21.768Z,100902.31
2022-11-15T05:05:06.903Z,100911.78
2022-11-15T05:07:52.143Z,100907.19
2022-11-15T05:10:37.313Z,100916.91
2022-11-15T05:13:22.263Z,100916.38
2022-11-15T05:16:07.375Z,100907.44
2022-11-15T05:18:54.427Z,100911.94
2022-11-15T05:21:39.520Z,100910.50
2022-11-15T05:24:24.680Z,100909.97
2022-11-15T05:27:09.618Z,100916.22
2022-11-15T05:29:54.516Z,100920.88
2022-11-15T05:32:39.921Z,100914.31
2022-11-15T05:35:37.841Z,100910.94
2022-11-15T05:38:24.583Z,100906.13
2022-11-15T05:41:09.850Z,100906.94
2022-11-15T05:43:55.078Z,100898.81
2022-11-15T05:46:41.998Z,100896.13
2022-11-15T05:49:32.126Z,100901.00
2022-11-15T05:52:21.275Z,100907.69
2022-11-15T05:55:07.815Z,100902.63
2022-11-15T05:57:52.726Z,100900.41
2022-11-15T06:00:37.787Z,100893.47
2022-11-15T06:03:22.898Z,100901.59
2022-11-15T06:06:12.256Z,100899.25
2022-11-15T06:09:00.053Z,100906.41
2022-11-15T06:11:44.998Z,100902.88
2022-11-15T06:14:30.769Z,100905.75
2022-11-15T06:17:15.567Z,100899.69
2022-11-15T06:20:00.543Z,100902.56
2022-11-15T06:22:45.613Z,100905.72
2022-11-15T06:25:31.960Z,100911.22
2022-11-15T06:28:16.859Z,100912.84
2022-11-15T06:31:07.221Z,100913.41
2022-11-15T06:33:52.709Z,100913.06
2022-11-15T06:36:38.036Z,100917.53
2022-11-15T06:39:22.972Z,100913.59
2022-11-15T06:42:09.333Z,100914.44
2022-11-15T06:44:54.217Z,100917.47
2022-11-15T06:47:47.518Z,100926.91
2022-11-15T06:50:32.721Z,100922.03
2022-11-15T06:53:17.543Z,100926.31
2022-11-15T06:56:04.156Z,100928.16
2022-11-15T06:58:49.306Z,100923.38
2022-11-15T07:01:34.258Z,100931.09
2022-11-15T07:04:19.699Z,100939.28
2022-11-15T07:07:04.685Z,100932.69
2022-11-15T07:09:49.586Z,100931.50
2022-11-15T07:12:34.530Z,100928.50
2022-11-15T07:15:21.384Z,100931.94
2022-11-15T07:18:06.565Z,100943.50
2022-11-15T07:20:51.330Z,100939.41
2022-11-15T07:23:40.273Z,100939.50
2022-11-15T07:26:25.218Z,100942.13
2022-11-15T07:29:10.062Z,100943.88
2022-11-15T07:31:55.280Z,100943.09
2022-11-15T07:34:40.371Z,100944.47
2022-11-15T07:37:25.335Z,100942.84
2022-11-15T07:40:10.534Z,100941.06
2022-11-15T07:43:03.672Z,100939.94
2022-11-15T07:45:48.625Z,100943.31
2022-11-15T07:48:43.429Z,100938.41
2022-11-15T07:51:29.671Z,100940.31
2022-11-15T07:54:14.407Z,100936.19
2022-11-15T07:57:03.909Z,100932.97
2022-11-15T07:59:51.679Z,100937.16
2022-11-15T08:02:36.784Z,100927.72
2022-11-15T08:05:22.069Z,100927.22
2022-11-15T08:08:08.314Z,100925.78
2022-11-15T08:10:53.315Z,100935.50
2022-11-15T08:13:38.231Z,100934.97
2022-11-15T08:16:23.073Z,100928.63
2022-11-15T08:19:07.948Z,100933.31
2022-11-15T08:21:52.921Z,100931.06
2022-11-15T08:24:39.472Z,100933.69
2022-11-15T08:27:24.834Z,100936.31
2022-11-15T08:30:11.264Z,100942.47
2022-11-15T08:33:02.407Z,100937.78
2022-11-15T08:35:49.586Z,100937.56
2022-11-15T08:38:34.798Z,100945.72
2022-11-15T08:41:30.749Z,100940.53
2022-11-15T08:44:16.179Z,100934.41
2022-11-15T08:47:05.033Z,100933.84
2022-11-15T08:49:50.449Z,100934.25
2022-11-15T08:52:35.602Z,100930.88
2022-11-15T08:55:24.407Z,100930.75
2022-11-15T08:58:13.635Z,100935.78
2022-11-15T09:01:02.847Z,100936.41
2022-11-15T09:03:48.693Z,100922.47
2022-11-15T09:06:43.225Z,100925.88
2022-11-15T09:09:28.737Z,100934.34
2022-11-15T09:12:13.883Z,100933.78
2022-11-15T09:14:59.152Z,100938.34
2022-11-15T09:17:44.482Z,100934.75
2022-11-15T09:20:29.504Z,100931.72
2022-11-15T09:23:14.284Z,100936.22
2022-11-15T09:26:05.484Z,100929.03
2022-11-15T09:28:51.056Z,100932.91
2022-11-15T09:31:36.006Z,100938.50
2022-11-15T09:34:21.968Z,100932.94
2022-11-15T09:37:06.834Z,100932.69
2022-11-15T09:39:51.832Z,100936.91
2022-11-15T09:42:59.506Z,100936.94
2022-11-15T09:46:07.529Z,100940.03
2022-11-15T09:48:59.847Z,100934.22
2022-11-15T09:51:47.614Z,100940.13
2022-11-15T09:54:52.137Z,100924.25
2022-11-15T09:57:19.545Z,100924.50
2022-11-15T09:59:56.855Z,100922.59
2022-11-15T10:02:43.864Z,100918.72
2022-11-15T10:05:18.295Z,100919.56
2022-11-15T10:07:58.533Z,100907.56
2022-11-15T10:10:40.244Z,100903.41
2022-11-15T10:13:17.647Z,100896.13
2022-11-15T10:15:46.571Z,100895.03
2022-11-15T10:18:23.345Z,100891.41
2022-11-15T10:20:56.170Z,100884.72
2022-11-15T10:23:24.182Z,100886.13
2022-11-15T10:26:06.650Z,100882.47
2022-11-15T10:28:33.934Z,100881.06
2022-11-15T10:31:02.082Z,100863.50
2022-11-15T10:33:39.574Z,100865.75
2022-11-15T10:36:14.483Z,100860.69
2022-11-15T10:38:53.814Z,100850.91
2022-11-15T10:41:32.388Z,100846.44
2022-11-15T10:44:07.877Z,100845.88
2022-11-15T10:46:51.936Z,100852.00
2022-11-15T10:49:25.184Z,100846.94
2022-11-15T10:52:13.067Z,100843.56
2022-11-15T10:54:47.324Z,100839.06
2022-11-15T10:57:23.584Z,100838.22
2022-11-15T10:59:53.388Z,100837.63
2022-11-15T11:02:33.600Z,100824.22
2022-11-15T11:05:01.032Z,100824.16
2022-11-15T11:07:31.194Z,100829.72
2022-11-15T11:10:44.096Z,100823.28
2022-11-15T11:13:24.566Z,100819.03
2022-11-15T11:16:06.535Z,100820.34
2022-11-15T11:19:02.312Z,100806.63
2022-11-15T11:21:44.633Z,100815.53
2022-11-15T11:24:30.954Z,100814.41
2022-11-15T11:27:09.034Z,100811.56
2022-11-15T11:29:57.019Z,100818.84
2022-11-15T11:32:58.641Z,100812.66
2022-11-15T11:35:33.179Z,100799.44
2022-11-15T11:38:25.393Z,100798.84
2022-11-15T11:41:16.088Z,100796.88
2022-11-15T11:44:03.565Z,100795.41
2022-11-15T11:47:09.998Z,100793.38
2022-11-15T11:49:45.709Z,100787.19
2022-11-15T11:52:27.738Z,100776.19
2022-11-15T11:55:11.847Z,100772.41
2022-11-15T11:58:12.204Z,100772.66
2022-11-15T12:00:47.506Z,100774.94
2022-11-15T12:03:33.173Z,100778.81
2022-11-15T12:06:11.286Z,100781.28
2022-11-15T12:09:15.337Z,100776.69
2022-11-15T12:12:09.482Z,100769.31
2022-11-15T12:14:46.687Z,100775.69
2022-11-15T12:17:14.003Z,100768.91
2022-11-15T12:19:41.374Z,100765.78
2022-11-15T12:22:17.584Z,100760.59
2022-11-15T12:24:55.986Z,100754.66
2022-11-15T12:27:41.469Z,100755.97
2022-11-15T12:30:20.519Z,100748.31
2022-11-15T12:32:59.817Z,100751.78
2022-11-15T12:35:33.989Z,100744.19
2022-11-15T12:38:00.577Z,100742.44
2022-11-15T12:40:31.020Z,100743.25
2022-11-15T12:43:10.712Z,100742.94
2022-11-15T12:45:46.989Z,100730.47
2022-11-15T12:48:16.173Z,100727.66
2022-11-15T12:50:56.937Z,100734.34
2022-11-15T12:53:34.557Z,100734.50
2022-11-15T12:56:12.954Z,100729.44
2022-11-15T12:58:49.802Z,100726.63
2022-11-15T13:01:31.956Z,100723.94
2022-11-15T13:04:20.194Z,100720.59
2022-11-15T13:06:52.614Z,100724.09
2022-11-15T13:09:37.200Z,100716.94
2022-11-15T13:12:05.544Z,100716.41
2022-11-15T13:14:37.825Z,100712.56
2022-11-15T13:17:22.542Z,100717.16
2022-11-15T13:19:59.722Z,100704.66
2022-11-15T13:22:46.247Z,100709.78
2022-11-15T13:25:46.208Z,100707.22
2022-11-15T13:28:15.211Z,100700.53
2022-11-15T13:30:51.056Z,100703.19
2022-11-15T13:33:33.054Z,100707.78
2022-11-15T13:36:06.676Z,100708.38
2022-11-15T13:38:38.638Z,100698.25
2022-11-15T13:41:35.558Z,100694.31
2022-11-15T13:44:03.674Z,100689.75
2022-11-15T13:46:34.811Z,100682.03
2022-11-15T13:49:04.063Z,100690.81
2022-11-15T13:51:49.431Z,100683.91
2022-11-15T13:54:26.232Z,100687.09
2022-11-15T13:56:56.777Z,100690.28
2022-11-15T13:59:28.383Z,100698.84
2022-11-15T14:01:57.565Z,100699.75
2022-11-15T14:04:27.383Z,100696.31
2022-11-15T14:06:58.343Z,100692.88
2022-11-15T14:09:32.796Z,100688.28
2022-11-15T14:12:00.518Z,100694.03
2022-11-15T14:14:30.709Z,100688.50
2022-11-15T14:17:00.169Z,100689.94
2022-11-15T14:19:26.604Z,100678.38
2022-11-15T14:22:16.436Z,100680.34
2022-11-15T14:24:48.505Z,100673.00
2022-11-15T14:27:21.164Z,100676.34
2022-11-15T14:29:48.752Z,100676.25
2022-11-15T14:32:24.016Z,100675.69
2022-11-15T14:34:59.152Z,100672.25
2022-11-15T14:37:28.249Z,100670.38
2022-11-15T14:39:55.686Z,100673.28
2022-11-15T14:42:24.054Z,100664.59
2022-11-15T14:44:51.049Z,100668.88
2022-11-15T14:47:17.885Z,100667.03
2022-11-15T14:49:44.911Z,100670.16
2022-11-15T14:52:32.627Z,100671.22
2022-11-15T14:55:00.278Z,100681.63
2022-11-15T14:57:26.754Z,100666.91
2022-11-15T14:59:53.295Z,100669.63
2022-11-15T15:02:22.941Z,100663.25
2022-11-15T15:04:50.110Z,100657.44
2022-11-15T15:07:17.286Z,100657.84
2022-11-15T15:09:44.932Z,100653.19
2022-11-15T15:12:22.975Z,100661.75
2022-11-15T15:14:51.079Z,100661.00
2022-11-15T15:17:18.417Z,100655.97
2022-11-15T15:19:44.835Z,100655.97
2022-11-15T15:22:17.384Z,100657.16
2022-11-15T15:24:45.350Z,100655.63
2022-11-15T15:27:12.849Z,100656.91
2022-11-15T15:29:39.634Z,100652.69
2022-11-15T15:32:06.653Z,100656.03
2022-11-15T15:34:33.511Z,100647.22
2022-11-15T15:37:23.807Z,100643.09
2022-11-15T15:39:57.341Z,100650.38
2022-11-15T15:42:24.296Z,100644.22
2022-11-15T15:44:51.705Z,100641.06
2022-11-15T15:47:21.067Z,100644.72
2022-11-15T15:49:48.520Z,100642.47
2022-11-15T15:52:14.927Z,100634.59
2022-11-15T15:54:41.404Z,100625.34
2022-11-15T15:57:09.345Z,100624.38
2022-11-15T15:59:35.740Z,100624.38
2022-11-15T16:02:02.149Z,100624.38
2022-11-15T16:04:29.479Z,100621.34
2022-11-15T16:07:00.781Z,100612.63
2022-11-15T16:09:46.541Z,100614.41
2022-11-15T16:12:12.944Z,100613.84
2022-11-15T16:14:39.338Z,100606.59
2022-11-15T16:17:06.149Z,100614.66
2022-11-15T16:19:32.542Z,100608.81
2022-11-15T16:21:58.937Z,100606.06
2022-11-15T16:24:25.343Z,100608.84
2022-11-15T16:26:52.739Z,100601.66
2022-11-15T16:29:19.118Z,100608.09
2022-11-15T16:31:45.576Z,100611.19
2022-11-15T16:34:11.988Z,100607.31
2022-11-15T16:36:38.492Z,100595.56
2022-11-15T16:39:05.066Z,100590.50
2022-11-15T16:41:31.786Z,100593.72
2022-11-15T16:43:58.233Z,100588.66
2022-11-15T16:46:26.652Z,100593.09
2022-11-15T16:48:56.474Z,100588.09
2022-11-15T16:51:23.548Z,100596.53
2022-11-15T16:53:50.125Z,100588.16
2022-11-15T16:56:29.816Z,100585.09
2022-11-15T16:58:58.571Z,100585.75
2022-11-15T17:01:30.858Z,100578.50
2022-11-15T17:03:57.598Z,100584.41
2022-11-15T17:06:26.502Z,100590.63
2022-11-15T17:08:53.042Z,100589.25
2022-11-15T17:11:22.108Z,100597.34
2022-11-15T17:13:49.471Z,100592.31
2022-11-15T17:16:18.372Z,100594.22
2022-11-15T17:18:47.558Z,100588.63
2022-11-15T17:21:17.104Z,100592.50
2022-11-15T17:23:43.919Z,100594.47
2022-11-15T17:26:29.639Z,100590.38
2022-11-15T17:28:57.258Z,100593.50
2022-11-15T17:31:23.675Z,100588.22
2022-11-15T17:33:50.130Z,100575.44
2022-11-15T17:36:16.552Z,100583.81
2022-11-15T17:38:43.828Z,100580.44
2022-11-15T17:41:13.598Z,100576.22
2022-11-15T17:43:40.469Z,100573.97
2022-11-15T17:46:09.001Z,100577.78
2022-11-15T17:48:35.627Z,100580.84
2022-11-15T17:51:07.416Z,100584.53
2022-11-15T17:53:37.894Z,100576.44
2022-11-15T17:56:09.204Z,100579.53
2022-11-15T17:58:35.914Z,100589.91
2022-11-15T18:01:06.863Z,100588.34
2022-11-15T18:03:34.231Z,100586.47
2022-11-15T18:06:00.979Z,100584.03
2022-11-15T18:08:27.389Z,100583.47
2022-11-15T18:11:05.304Z,100577.31
2022-11-15T18:13:32.115Z,100580.94
2022-11-15T18:16:02.484Z,100580.13
2022-11-15T18:18:30.157Z,100579.84
2022-11-15T18:21:11.451Z,100580.09
2022-11-15T18:23:38.262Z,100576.50
2022-11-15T18:26:06.525Z,100584.56
2022-11-15T18:28:35.794Z,100582.56
2022-11-15T18:31:04.340Z,100571.41
2022-11-15T18:33:35.318Z,100575.94
2022-11-15T18:36:07.254Z,100571.16
2022-11-15T18:38:34.108Z,100566.97
2022-11-15T18:41:09.120Z,100559.69
2022-11-15T18:43:35.997Z,100561.59
2022-11-15T18:46:11.118Z,100567.22
2022-11-15T18:48:39.908Z,100563.00
2022-11-15T18:51:14.448Z,100563.34
2022-11-15T18:53:42.369Z,100563.38
2022-11-15T18:56:11.033Z,100556.72
2022-11-15T18:58:45.887Z,100564.59
2022-11-15T19:01:12.281Z,100559.81
2022-11-15T19:03:40.438Z,100557.84
2022-11-15T19:06:09.473Z,100560.66
2022-11-15T19:08:37.160Z,100560.97
2022-11-15T19:11:10.307Z,100554.81
2022-11-15T19:13:36.724Z,100558.41
2022-11-15T19:16:04.030Z,100555.31
2022-11-15T19:18:32.290Z,100560.38
2022-11-15T19:21:14.615Z,100558.44
2022-11-15T19:23:42.860Z,100551.75
2022-11-15T19:26:15.338Z,100558.44
2022-11-15T19:28:42.638Z,100551.75
2022-11-15T19:31:12.654Z,100546.41
2022-11-15T19:33:40.741Z,100552.84
2022-11-15T19:36:16.943Z,100551.44
2022-11-15T19:38:43.492Z,100551.19
2022-11-15T19:41:12.116Z,100548.66
2022-11-15T19:43:38.697Z,100553.41
2022-11-15T19:46:06.808Z,100553.41
2022-11-15T19:48:34.410Z,100547.88
2022-11-15T19:51:02.607Z,100547.56
2022-11-15T19:53:34.537Z,100549.53
2022-11-15T19:56:06.544Z,100545.09
2022-11-15T19:58:34.598Z,100551.78
2022-11-15T20:01:03.000Z,100543.69
2022-11-15T20:03:30.965Z,100549.56
2022-11-15T20:06:09.131Z,100545.38
2022-11-15T20:08:36.444Z,100542.03
2022-11-15T20:11:04.557Z,100543.69
2022-11-15T20:13:31.746Z,100540.31
2022-11-15T20:15:58.660Z,100543.09
2022-11-15T20:18:26.683Z,100543.91
2022-11-15T20:20:54.635Z,100541.09
2022-11-15T20:23:21.242Z,100550.38
2022-11-15T20:25:48.183Z,100547.28
2022-11-15T20:28:19.798Z,100553.13
2022-11-15T20:30:47.557Z,100541.03
2022-11-15T20:33:14.755Z,100541.88
2022-11-15T20:35:41.313Z,100545.28
2022-11-15T20:38:08.170Z,100545.28
2022-11-15T20:40:34.861Z,100542.81
2022-11-15T20:43:01.918Z,100543.91
2022-11-15T20:45:28.403Z,100542.81
2022-11-15T20:47:56.557Z,100547.28
2022-11-15T20:50:41.535Z,100550.06
2022-11-15T20:53:09.970Z,100547.84
2022-11-15T20:55:47.664Z,100552.03
2022-11-15T20:58:20.807Z,100550.63
2022-11-15T21:00:48.010Z,100548.41
2022-11-15T21:03:14.797Z,100545.28
2022-11-15T21:05:42.962Z,100548.38
2022-11-15T21:08:11.868Z,100545.84
2022-11-15T21:10:59.154Z,100540.75
2022-11-15T21:13:26.750Z,100538.94
2022-11-15T21:15:56.946Z,100536.66
2022-11-15T21:18:24.006Z,100538.91
2022-11-15T21:20:53.239Z,100533.84
2022-11-15T21:23:19.641Z,100530.44
2022-11-15T21:25:50.679Z,100532.97
2022-11-15T21:28:16.994Z,100531.50
2022-11-15T21:30:52.804Z,100528.44
2022-11-15T21:33:19.453Z,100515.94
2022-11-15T21:35:45.901Z,100510.97
2022-11-15T21:38:12.320Z,100517.94
2022-11-15T21:40:38.724Z,100521.31
2022-11-15T21:43:05.112Z,100514.69
2022-11-15T21:45:31.498Z,100509.88
2022-11-15T21:47:57.981Z,100495.13
2022-11-15T21:50:24.369Z,100499.00
2022-11-15T21:52:50.786Z,100499.00
2022-11-15T21:55:17.169Z,100500.69
2022-11-15T21:57:43.787Z,100502.94
2022-11-15T22:00:29.633Z,100503.53
2022-11-15T22:02:56.039Z,100511.31
2022-11-15T22:05:23.119Z,100516.84
2022-11-15T22:07:49.716Z,100521.31
2022-11-15T22:10:16.135Z,100510.16
2022-11-15T22:12:42.542Z,100507.94
2022-11-15T22:15:09.421Z,100504.31
2022-11-15T22:17:54.450Z,100505.16
2022-11-15T22:20:43.561Z,100507.69
2022-11-15T22:23:07.246Z,100507.41
2022-11-15T22:25:33.659Z,100501.81
2022-11-15T22:28:00.066Z,100498.72
2022-11-15T22:30:26.482Z,100495.38
2022-11-15T22:32:52.883Z,100490.97
2022-11-15T22:35:19.304Z,100490.69
2022-11-15T22:37:45.744Z,100488.47
2022-11-15T22:40:12.132Z,100488.44
2022-11-15T22:42:38.498Z,100482.00
2022-11-15T22:45:05.289Z,100472.84
2022-11-15T22:47:31.689Z,100475.66
2022-11-15T22:49:58.089Z,100471.19
2022-11-15T22:52:24.486Z,100468.97
2022-11-15T22:54:50.908Z,100467.84
2022-11-15T22:57:17.370Z,100457.28
2022-11-15T22:59:43.761Z,100462.00
2022-11-15T23:02:10.162Z,100456.72
2022-11-15T23:04:36.572Z,100461.13
2022-11-15T23:07:02.991Z,100455.53
2022-11-15T23:09:29.427Z,100463.28
2022-11-15T23:12:14.407Z,100465.81
2022-11-15T23:14:40.797Z,100466.66
2022-11-15T23:17:07.401Z,100463.56
2022-11-15T23:19:33.848Z,100462.16
2022-11-15T23:22:19.066Z,100470.00
2022-11-15T23:24:45.557Z,100464.44
2022-11-15T23:27:15.195Z,100465.25
2022-11-15T23:30:00.309Z,100456.94
2022-11-15T23:32:45.465Z,100457.69
2022-11-15T23:35:11.891Z,100443.75
2022-11-15T23:37:38.346Z,100443.72
2022-11-15T23:40:05.390Z,100442.31
2022-11-15T23:42:31.845Z,100443.63
2022-11-15T23:44:58.225Z,100443.84
2022-11-15T23:47:24.811Z,100445.81
2022-11-15T23:49:51.186Z,100446.97
2022-11-15T23:52:17.594Z,100453.53
2022-11-15T23:54:44.474Z,100451.81
2022-11-15T23:57:12.337Z,100451.28
2022-11-15T23:59:40.040Z,100456.22
